createdAt,value
2022-11-10T00:00:44.744Z,98648.28
2022-11-10T00:01:46.716Z,98646.78
2022-11-10T00:02:48.443Z,98642.25
2022-11-10T00:03:50.407Z,98650.94
2022-11-10T00:04:51.901Z,98652.81
2022-11-10T00:05:53.307Z,98646.00
2022-11-10T00:06:55.273Z,98649.41
2022-11-10T00:07:57.166Z,98650.88
2022-11-10T00:08:58.709Z,98654.63
2022-11-10T00:10:00.238Z,98647.88
2022-11-10T00:11:06.926Z,98653.94
2022-11-10T00:12:08.940Z,98656.91
2022-11-10T00:13:10.358Z,98652.34
2022-11-10T00:14:30.408Z,98658.75
2022-11-10T00:15:50.354Z,98660.31
2022-11-10T00:17:01.829Z,98660.31
2022-11-10T00:18:03.892Z,98661.41
2022-11-10T00:19:05.816Z,98665.56
2022-11-10T00:20:07.924Z,98671.25
2022-11-10T00:21:11.198Z,98664.81
2022-11-10T00:22:12.619Z,98662.50
2022-11-10T00:23:14.493Z,98664.38
2022-11-10T00:24:15.895Z,98663.69
2022-11-10T00:25:17.400Z,98664.00
2022-11-10T00:26:20.062Z,98668.91
2022-11-10T00:27:21.462Z,98665.16
2022-11-10T00:28:23.395Z,98674.63
2022-11-10T00:29:24.820Z,98675.31
2022-11-10T00:30:26.972Z,98672.75
2022-11-10T00:31:28.605Z,98672.75
2022-11-10T00:32:30.642Z,98674.63
2022-11-10T00:33:34.689Z,98662.88
2022-11-10T00:34:37.008Z,98667.41
2022-11-10T00:35:38.400Z,98672.25
2022-11-10T00:36:39.988Z,98666.22
2022-11-10T00:37:41.866Z,98673.31
2022-11-10T00:38:43.261Z,98666.16
2022-11-10T00:39:44.679Z,98671.03
2022-11-10T00:40:47.788Z,98677.09
2022-11-10T00:41:49.765Z,98672.53
2022-11-10T00:42:52.517Z,98681.97
2022-11-10T00:43:54.315Z,98677.84
2022-11-10T00:44:55.741Z,98687.66
2022-11-10T00:45:57.248Z,98689.16
2022-11-10T00:46:58.791Z,98691.06
2022-11-10T00:48:00.242Z,98695.19
2022-11-10T00:49:01.730Z,98699.25
2022-11-10T00:50:03.366Z,98701.59
2022-11-10T00:51:05.906Z,98694.72
2022-11-10T00:52:07.957Z,98700.84
2022-11-10T00:53:09.367Z,98699.72
2022-11-10T00:54:11.033Z,98702.34
2022-11-10T00:55:12.590Z,98703.50
2022-11-10T00:56:14.020Z,98706.16
2022-11-10T00:57:15.460Z,98702.75
2022-11-10T00:58:16.984Z,98698.94
2022-11-10T00:59:18.402Z,98701.91
2022-11-10T01:00:19.996Z,98703.78
2022-11-10T01:01:24.851Z,98703.03
2022-11-10T01:02:26.374Z,98702.19
2022-11-10T01:03:28.189Z,98702.94
2022-11-10T01:04:29.579Z,98699.97
2022-11-10T01:05:31.362Z,98710.19
2022-11-10T01:06:33.055Z,98701.59
2022-11-10T01:07:35.047Z,98707.84
2022-11-10T01:08:37.749Z,98710.13
2022-11-10T01:09:39.645Z,98713.88
2022-11-10T01:10:41.027Z,98714.66
2022-11-10T01:11:42.477Z,98718.03
2022-11-10T01:12:43.852Z,98711.25
2022-11-10T01:13:46.626Z,98723.69
2022-11-10T01:14:48.517Z,98715.00
2022-11-10T01:15:49.881Z,98717.97
2022-11-10T01:16:51.308Z,98716.88
2022-11-10T01:17:54.963Z,98722.50
2022-11-10T01:18:59.269Z,98722.88
2022-11-10T01:20:00.678Z,98720.16
2022-11-10T01:21:03.083Z,98720.16
2022-11-10T01:22:04.536Z,98728.06
2022-11-10T01:23:05.943Z,98723.91
2022-11-10T01:24:07.966Z,98720.91
2022-11-10T01:25:09.900Z,98725.78
2022-11-10T01:26:12.740Z,98727.31
2022-11-10T01:27:14.135Z,98733.38
2022-11-10T01:28:15.584Z,98729.97
2022-11-10T01:29:16.977Z,98733.31
2022-11-10T01:30:18.842Z,98733.66
2022-11-10T01:31:22.277Z,98735.53
2022-11-10T01:32:23.714Z,98741.94
2022-11-10T01:33:25.194Z,98740.81
2022-11-10T01:34:26.628Z,98745.34
2022-11-10T01:35:28.036Z,98747.97
2022-11-10T01:36:29.451Z,98739.28
2022-11-10T01:37:30.899Z,98747.56
2022-11-10T01:38:38.061Z,98747.91
2022-11-10T01:39:39.452Z,98752.88
2022-11-10T01:40:41.007Z,98751.75
2022-11-10T01:41:42.432Z,98747.50
2022-11-10T01:42:54.812Z,98750.16
2022-11-10T01:44:22.833Z,98752.03
2022-11-10T01:45:24.189Z,98753.06
2022-11-10T01:46:26.258Z,98755.63
2022-11-10T01:47:28.144Z,98758.84
2022-11-10T01:48:54.594Z,98756.97
2022-11-10T01:49:56.032Z,98761.47
2022-11-10T01:51:02.663Z,98756.97
2022-11-10T01:52:14.617Z,98754.69
2022-11-10T01:53:24.380Z,98756.56
2022-11-10T01:54:29.321Z,98753.13
2022-11-10T01:55:32.627Z,98770.38
2022-11-10T01:56:39.664Z,98762.81
2022-11-10T01:57:41.955Z,98764.97
2022-11-10T01:58:49.640Z,98760.00
2022-11-10T01:59:51.260Z,98762.84
2022-11-10T02:00:53.565Z,98769.31
2022-11-10T02:02:02.390Z,98781.06
2022-11-10T02:03:13.319Z,98777.50
2022-11-10T02:04:17.935Z,98776.59
2022-11-10T02:05:22.164Z,98776.19
2022-11-10T02:06:29.891Z,98772.00
2022-11-10T02:07:32.381Z,98775.25
2022-11-10T02:08:34.861Z,98785.81
2022-11-10T02:09:36.740Z,98772.97
2022-11-10T02:10:38.433Z,98785.31
2022-11-10T02:11:41.833Z,98783.53
2022-11-10T02:12:44.254Z,98783.16
2022-11-10T02:13:46.002Z,98780.13
2022-11-10T02:14:47.469Z,98779.75
2022-11-10T02:15:49.039Z,98787.59
2022-11-10T02:16:51.147Z,98786.50
2022-11-10T02:17:52.579Z,98788.72
2022-11-10T02:18:54.005Z,98795.88
2022-11-10T02:20:00.096Z,98788.72
2022-11-10T02:21:04.666Z,98794.00
2022-11-10T02:22:06.086Z,98792.47
2022-11-10T02:23:29.822Z,98791.34
2022-11-10T02:24:32.306Z,98792.81
2022-11-10T02:25:34.673Z,98785.22
2022-11-10T02:26:39.228Z,98793.09
2022-11-10T02:27:40.634Z,98787.72
2022-11-10T02:28:42.098Z,98796.31
2022-11-10T02:29:44.033Z,98795.47
2022-11-10T02:30:45.472Z,98798.81
2022-11-10T02:31:47.427Z,98801.09
2022-11-10T02:32:48.845Z,98797.69
2022-11-10T02:33:50.279Z,98802.53
2022-11-10T02:34:51.720Z,98799.38
2022-11-10T02:35:53.194Z,98799.72
2022-11-10T02:36:54.752Z,98800.94
2022-11-10T02:37:56.201Z,98801.34
2022-11-10T02:38:57.615Z,98803.22
2022-11-10T02:39:59.084Z,98808.50
2022-11-10T02:41:00.492Z,98801.00
2022-11-10T02:42:02.998Z,98803.63
2022-11-10T02:43:07.976Z,98806.28
2022-11-10T02:44:09.627Z,98808.91
2022-11-10T02:45:11.149Z,98811.56
2022-11-10T02:46:12.628Z,98811.91
2022-11-10T02:47:14.105Z,98805.88
2022-11-10T02:48:16.510Z,98811.50
2022-11-10T02:49:17.923Z,98813.34
2022-11-10T02:50:19.368Z,98812.91
2022-11-10T02:51:21.264Z,98814.13
2022-11-10T02:52:23.166Z,98814.53
2022-11-10T02:53:24.870Z,98813.78
2022-11-10T02:54:26.395Z,98813.78
2022-11-10T02:55:27.838Z,98820.50
2022-11-10T02:56:29.299Z,98823.13
2022-11-10T02:57:30.747Z,98831.03
2022-11-10T02:58:32.231Z,98829.09
2022-11-10T02:59:33.712Z,98828.25
2022-11-10T03:00:35.201Z,98828.56
2022-11-10T03:01:36.703Z,98828.56
2022-11-10T03:02:38.658Z,98838.69
2022-11-10T03:03:40.096Z,98833.34
2022-11-10T03:04:41.696Z,98834.44
2022-11-10T03:05:43.254Z,98830.94
2022-11-10T03:06:44.769Z,98833.16
2022-11-10T03:07:51.695Z,98836.47
2022-11-10T03:08:53.255Z,98831.09
2022-11-10T03:09:54.704Z,98838.50
2022-11-10T03:10:57.421Z,98839.16
2022-11-10T03:11:58.853Z,98840.19
2022-11-10T03:13:02.064Z,98845.00
2022-11-10T03:14:03.965Z,98845.69
2022-11-10T03:15:05.726Z,98837.00
2022-11-10T03:16:07.822Z,98844.91
2022-11-10T03:17:09.337Z,98844.16
2022-11-10T03:18:10.751Z,98844.16
2022-11-10T03:19:12.200Z,98849.00
2022-11-10T03:20:13.992Z,98842.53
2022-11-10T03:21:15.548Z,98844.41
2022-11-10T03:22:17.122Z,98841.25
2022-11-10T03:23:19.269Z,98845.66
2022-11-10T03:24:20.863Z,98858.81
2022-11-10T03:25:22.273Z,98860.34
2022-11-10T03:26:24.172Z,98858.06
2022-11-10T03:27:25.576Z,98862.34
2022-11-10T03:28:27.040Z,98866.44
2022-11-10T03:29:28.433Z,98860.75
2022-11-10T03:30:30.365Z,98859.66
2022-11-10T03:31:31.784Z,98864.16
2022-11-10T03:32:33.505Z,98867.56
2022-11-10T03:33:35.571Z,98864.81
2022-11-10T03:34:37.641Z,98870.09
2022-11-10T03:35:39.116Z,98864.81
2022-11-10T03:36:40.550Z,98862.94
2022-11-10T03:37:42.348Z,98865.22
2022-11-10T03:38:43.910Z,98873.13
2022-11-10T03:39:45.849Z,98870.44
2022-11-10T03:41:17.639Z,98865.06
2022-11-10T03:42:11.543Z,98874.06
2022-11-10T03:43:12.988Z,98868.78
2022-11-10T03:44:14.396Z,98871.75
2022-11-10T03:45:16.652Z,98869.88
2022-11-10T03:46:18.389Z,98868.03
2022-11-10T03:47:19.801Z,98879.34
2022-11-10T03:48:21.264Z,98876.69
2022-11-10T03:49:23.249Z,98877.00
2022-11-10T03:50:24.645Z,98882.28
2022-11-10T03:51:26.062Z,98880.75
2022-11-10T03:52:27.479Z,98885.59
2022-11-10T03:53:28.993Z,98883.72
2022-11-10T03:54:30.872Z,98884.50
2022-11-10T03:55:32.330Z,98882.97
2022-11-10T03:56:33.821Z,98888.22
2022-11-10T03:57:35.773Z,98889.66
2022-11-10T03:58:37.219Z,98890.34
2022-11-10T03:59:39.638Z,98892.19
2022-11-10T04:00:41.091Z,98898.56
2022-11-10T04:01:42.522Z,98894.72
2022-11-10T04:02:44.005Z,98903.72
2022-11-10T04:03:51.092Z,98906.69
2022-11-10T04:05:11.592Z,98900.31
2022-11-10T04:06:31.497Z,98898.69
2022-11-10T04:07:52.085Z,98906.50
2022-11-10T04:08:59.121Z,98906.03
2022-11-10T04:10:00.727Z,98917.25
2022-11-10T04:11:03.217Z,98906.28
2022-11-10T04:12:24.951Z,98912.88
2022-11-10T04:13:45.113Z,98909.34
2022-11-10T04:16:27.729Z,98915.50
2022-11-10T04:17:29.312Z,98915.41
2022-11-10T04:18:30.927Z,98918.34
2022-11-10T04:19:32.638Z,98926.94
2022-11-10T04:20:34.037Z,98924.94
2022-11-10T04:21:35.460Z,98924.81
2022-11-10T04:22:56.030Z,98925.16
2022-11-10T04:23:57.730Z,98922.84
2022-11-10T04:24:59.184Z,98926.25
2022-11-10T04:26:25.455Z,98929.66
2022-11-10T04:27:26.857Z,98925.47
2022-11-10T04:28:28.288Z,98928.09
2022-11-10T04:29:29.737Z,98936.66
2022-11-10T04:30:31.224Z,98935.44
2022-11-10T04:31:37.334Z,98935.13
2022-11-10T04:32:38.743Z,98934.38
2022-11-10T04:33:41.802Z,98925.69
2022-11-10T04:34:43.361Z,98927.88
2022-11-10T04:35:44.787Z,98936.13
2022-11-10T04:36:46.289Z,98943.25
2022-11-10T04:37:48.168Z,98941.69
2022-11-10T04:38:49.928Z,98945.44
2022-11-10T04:39:51.361Z,98946.53
2022-11-10T04:40:53.600Z,98942.66
2022-11-10T04:41:59.739Z,98952.44
2022-11-10T04:43:03.784Z,98950.91
2022-11-10T04:44:05.352Z,98949.38
2022-11-10T04:45:07.090Z,98947.72
2022-11-10T04:46:20.399Z,98950.00
2022-11-10T04:47:21.768Z,98954.38
2022-11-10T04:48:23.393Z,98948.69
2022-11-10T04:49:24.918Z,98955.81
2022-11-10T04:50:26.327Z,98950.88
2022-11-10T04:51:30.458Z,98949.34
2022-11-10T04:52:32.311Z,98954.16
2022-11-10T04:53:34.134Z,98960.97
2022-11-10T04:54:35.971Z,98956.78
2022-11-10T04:55:42.366Z,98966.56
2022-11-10T04:56:43.807Z,98962.69
2022-11-10T04:57:45.197Z,98960.06
2022-11-10T04:58:47.725Z,98965.31
2022-11-10T04:59:49.972Z,98966.75
2022-11-10T05:00:51.404Z,98959.19
2022-11-10T05:01:52.843Z,98956.44
2022-11-10T05:02:54.248Z,98957.50
2022-11-10T05:03:56.045Z,98962.69
2022-11-10T05:04:57.912Z,98974.59
2022-11-10T05:05:59.304Z,98973.84
2022-11-10T05:07:00.734Z,98975.25
2022-11-10T05:08:04.581Z,98976.81
2022-11-10T05:09:06.014Z,98989.50
2022-11-10T05:10:08.107Z,98990.91
2022-11-10T05:11:10.958Z,98992.78
2022-11-10T05:12:12.358Z,98993.22
2022-11-10T05:13:14.256Z,98996.94
2022-11-10T05:14:15.634Z,98998.34
2022-11-10T05:15:17.158Z,99000.19
2022-11-10T05:16:18.858Z,99009.06
2022-11-10T05:17:20.277Z,99002.75
2022-11-10T05:18:21.822Z,99010.19
2022-11-10T05:19:23.251Z,99012.81
2022-11-10T05:20:25.627Z,99013.91
2022-11-10T05:21:27.517Z,99012.06
2022-11-10T05:22:29.135Z,99014.34
2022-11-10T05:23:39.631Z,99011.72
2022-11-10T05:24:41.146Z,99011.44
2022-11-10T05:25:45.189Z,99008.16
2022-11-10T05:26:47.075Z,99001.97
2022-11-10T05:27:48.950Z,99003.56
2022-11-10T05:28:50.557Z,99002.94
2022-11-10T05:29:51.959Z,99013.00
2022-11-10T05:30:53.374Z,99012.56
2022-11-10T05:31:54.779Z,99021.09
2022-11-10T05:32:56.588Z,99015.06
2022-11-10T05:33:58.700Z,99019.56
2022-11-10T05:35:00.509Z,99015.69
2022-11-10T05:36:02.583Z,99014.16
2022-11-10T05:37:04.127Z,99017.91
2022-11-10T05:38:06.825Z,99028.06
2022-11-10T05:39:08.926Z,99027.31
2022-11-10T05:40:10.760Z,99023.91
2022-11-10T05:41:12.473Z,99026.06
2022-11-10T05:42:13.861Z,99026.06
2022-11-10T05:43:15.375Z,99021.47
2022-11-10T05:44:17.500Z,99025.19
2022-11-10T05:45:24.070Z,99029.38
2022-11-10T05:46:26.389Z,99031.53
2022-11-10T05:47:27.795Z,99037.09
2022-11-10T05:48:29.205Z,99040.38
2022-11-10T05:49:30.694Z,99039.16
2022-11-10T05:50:32.469Z,99044.41
2022-11-10T05:51:34.096Z,99046.56
2022-11-10T05:52:39.409Z,99042.31
2022-11-10T05:53:40.848Z,99044.59
2022-11-10T05:54:42.753Z,99045.38
2022-11-10T05:55:44.174Z,99049.53
2022-11-10T05:56:46.045Z,99063.75
2022-11-10T05:57:49.495Z,99058.06
2022-11-10T05:58:51.199Z,99066.38
2022-11-10T05:59:53.217Z,99071.97
2022-11-10T06:00:54.642Z,99069.63
2022-11-10T06:01:56.253Z,99074.59
2022-11-10T06:03:06.324Z,99069.00
2022-11-10T06:04:08.241Z,99070.56
2022-11-10T06:05:12.943Z,99069.00
2022-11-10T06:06:14.498Z,99074.59
2022-11-10T06:07:15.953Z,99065.94
2022-11-10T06:08:18.397Z,99077.53
2022-11-10T06:09:19.851Z,99080.47
2022-11-10T06:10:21.345Z,99078.94
2022-11-10T06:11:22.793Z,99083.44
2022-11-10T06:12:30.272Z,99089.75
2022-11-10T06:13:32.223Z,99084.06
2022-11-10T06:14:33.625Z,99083.63
2022-11-10T06:15:35.225Z,99088.53
2022-11-10T06:16:36.642Z,99094.56
2022-11-10T06:17:38.362Z,99094.56
2022-11-10T06:18:40.262Z,99102.00
2022-11-10T06:19:41.709Z,99101.53
2022-11-10T06:20:43.192Z,99105.44
2022-11-10T06:21:44.727Z,99109.44
2022-11-10T06:22:59.449Z,99111.31
2022-11-10T06:24:01.372Z,99115.47
2022-11-10T06:25:03.116Z,99113.63
2022-11-10T06:26:05.130Z,99125.53
2022-11-10T06:27:06.571Z,99126.28
2022-11-10T06:28:09.429Z,99124.75
2022-11-10T06:29:10.834Z,99127.06
2022-11-10T06:30:12.883Z,99133.72
2022-11-10T06:31:14.758Z,99133.25
2022-11-10T06:32:16.915Z,99128.31
2022-11-10T06:33:18.398Z,99129.41
2022-11-10T06:34:19.979Z,99135.72
2022-11-10T06:35:22.552Z,99130.34
2022-11-10T06:36:24.086Z,99137.91
2022-11-10T06:37:26.022Z,99136.38
2022-11-10T06:38:27.442Z,99151.66
2022-11-10T06:39:29.082Z,99153.50
2022-11-10T06:40:31.693Z,99156.16
2022-11-10T06:41:34.472Z,99153.22
2022-11-10T06:42:36.195Z,99153.50
2022-11-10T06:43:37.606Z,99160.94
2022-11-10T06:44:39.091Z,99160.47
2022-11-10T06:45:40.528Z,99162.03
2022-11-10T06:46:42.569Z,99169.44
2022-11-10T06:47:44.569Z,99174.69
2022-11-10T06:48:46.006Z,99185.19
2022-11-10T06:49:47.890Z,99181.81
2022-11-10T06:50:49.777Z,99179.66
2022-11-10T06:51:51.994Z,99175.16
2022-11-10T06:52:57.787Z,99177.31
2022-11-10T06:53:59.707Z,99185.19
2022-11-10T06:55:01.147Z,99187.81
2022-11-10T06:56:02.662Z,99195.41
2022-11-10T06:57:04.293Z,99192.47
2022-11-10T06:58:05.712Z,99190.28
2022-11-10T06:59:07.627Z,99194.16
2022-11-10T07:00:10.068Z,99191.19
2022-11-10T07:01:12.023Z,99200.31
2022-11-10T07:02:15.278Z,99198.16
2022-11-10T07:03:16.740Z,99208.31
2022-11-10T07:04:20.130Z,99201.69
2022-11-10T07:05:24.584Z,99200.16
2022-11-10T07:06:26.097Z,99205.09
2022-11-10T07:07:27.497Z,99207.38
2022-11-10T07:08:29.141Z,99206.31
2022-11-10T07:09:30.578Z,99208.31
2022-11-10T07:10:33.024Z,99210.31
2022-11-10T07:11:35.151Z,99203.66
2022-11-10T07:12:36.585Z,99205.50
2022-11-10T07:13:38.186Z,99209.72
2022-11-10T07:14:40.200Z,99208.63
2022-11-10T07:15:42.277Z,99198.56
2022-11-10T07:16:43.709Z,99216.94
2022-11-10T07:17:45.128Z,99212.47
2022-11-10T07:18:47.884Z,99211.41
2022-11-10T07:19:49.296Z,99215.22
2022-11-10T07:20:51.179Z,99216.00
2022-11-10T07:21:52.614Z,99221.25
2022-11-10T07:23:04.225Z,99227.00
2022-11-10T07:24:06.062Z,99225.25
2022-11-10T07:25:07.983Z,99223.41
2022-11-10T07:26:09.399Z,99225.25
2022-11-10T07:27:10.811Z,99225.41
2022-11-10T07:28:12.405Z,99221.38
2022-11-10T07:29:13.842Z,99224.16
2022-11-10T07:30:15.859Z,99229.88
2022-11-10T07:31:17.820Z,99236.34
2022-11-10T07:32:19.239Z,99230.31
2022-11-10T07:33:21.290Z,99240.53
2022-11-10T07:34:22.937Z,99243.41
2022-11-10T07:35:24.333Z,99246.81
2022-11-10T07:36:29.373Z,99244.66
2022-11-10T07:37:30.800Z,99238.00
2022-11-10T07:38:32.247Z,99238.56
2022-11-10T07:39:33.691Z,99235.81
2022-11-10T07:40:36.161Z,99236.72
2022-11-10T07:41:38.115Z,99248.47
2022-11-10T07:42:41.181Z,99253.41
2022-11-10T07:43:43.338Z,99255.84
2022-11-10T07:44:44.738Z,99254.91
2022-11-10T07:45:46.202Z,99250.13
2022-11-10T07:46:47.619Z,99251.31
2022-11-10T07:47:50.735Z,99257.50
2022-11-10T07:48:52.622Z,99266.28
2022-11-10T07:49:54.027Z,99271.38
2022-11-10T07:50:55.435Z,99272.47
2022-11-10T07:51:57.153Z,99274.16
2022-11-10T07:53:06.969Z,99268.13
2022-11-10T07:54:08.450Z,99276.91
2022-11-10T07:55:10.826Z,99282.44
2022-11-10T07:56:12.336Z,99274.81
2022-11-10T07:57:13.768Z,99284.06
2022-11-10T07:58:17.824Z,99288.81
2022-11-10T07:59:19.256Z,99292.81
2022-11-10T08:00:20.792Z,99288.13
2022-11-10T08:01:22.306Z,99300.34
2022-11-10T08:02:24.273Z,99297.50
2022-11-10T08:03:26.150Z,99307.84
2022-11-10T08:04:27.706Z,99311.38
2022-11-10T08:05:29.877Z,99306.22
2022-11-10T08:06:36.005Z,99302.19
2022-11-10T08:07:38.156Z,99306.16
2022-11-10T08:08:39.616Z,99307.06
2022-11-10T08:09:41.162Z,99315.53
2022-11-10T08:10:43.393Z,99307.31
2022-11-10T08:11:45.086Z,99317.97
2022-11-10T08:12:46.642Z,99327.53
2022-11-10T08:13:48.063Z,99323.16
2022-11-10T08:14:49.475Z,99330.88
2022-11-10T08:15:51.435Z,99326.84
2022-11-10T08:16:52.933Z,99322.38
2022-11-10T08:18:17.552Z,99322.47
2022-11-10T08:19:18.966Z,99322.59
2022-11-10T08:20:20.383Z,99327.66
2022-11-10T08:21:22.271Z,99331.97
2022-11-10T08:22:23.774Z,99341.00
2022-11-10T08:23:25.411Z,99344.25
2022-11-10T08:24:27.068Z,99352.84
2022-11-10T08:25:34.840Z,99348.44
2022-11-10T08:26:36.459Z,99348.44
2022-11-10T08:27:37.879Z,99345.28
2022-11-10T08:28:39.287Z,99345.41
2022-11-10T08:29:41.169Z,99354.69
2022-11-10T08:30:44.749Z,99358.97
2022-11-10T08:31:46.183Z,99363.59
2022-11-10T08:32:47.612Z,99364.81
2022-11-10T08:33:49.041Z,99358.00
2022-11-10T08:34:50.993Z,99368.22
2022-11-10T08:35:52.667Z,99367.00
2022-11-10T08:36:54.122Z,99377.66
2022-11-10T08:37:55.592Z,99367.25
2022-11-10T08:38:57.029Z,99364.25
2022-11-10T08:39:58.931Z,99368.47
2022-11-10T08:41:00.333Z,99369.88
2022-11-10T08:42:01.728Z,99362.59
2022-11-10T08:43:07.285Z,99366.13
2022-11-10T08:44:10.994Z,99371.75
2022-11-10T08:45:13.862Z,99374.81
2022-11-10T08:46:15.778Z,99374.19
2022-11-10T08:47:17.187Z,99379.56
2022-11-10T08:48:20.309Z,99372.09
2022-11-10T08:49:21.723Z,99378.59
2022-11-10T08:50:23.149Z,99373.44
2022-11-10T08:51:25.394Z,99374.63
2022-11-10T08:52:26.929Z,99373.44
2022-11-10T08:53:28.468Z,99374.41
2022-11-10T08:54:29.921Z,99374.59
2022-11-10T08:55:31.440Z,99372.09
2022-11-10T08:56:34.215Z,99377.16
2022-11-10T08:57:35.647Z,99382.97
2022-11-10T08:58:45.414Z,99373.28
2022-11-10T08:59:52.214Z,99377.66
2022-11-10T09:00:53.844Z,99374.25
2022-11-10T09:01:55.255Z,99372.28
2022-11-10T09:03:03.051Z,99378.34
2022-11-10T09:04:04.974Z,99374.72
2022-11-10T09:05:06.940Z,99379.66
2022-11-10T09:06:08.377Z,99374.06
2022-11-10T09:07:09.842Z,99379.88
2022-11-10T09:08:12.014Z,99382.97
2022-11-10T09:09:13.418Z,99391.03
2022-11-10T09:10:15.077Z,99384.00
2022-11-10T09:11:17.044Z,99388.47
2022-11-10T09:12:18.546Z,99391.69
2022-11-10T09:13:29.024Z,99396.44
2022-11-10T09:14:31.974Z,99402.94
2022-11-10T09:15:34.699Z,99408.31
2022-11-10T09:16:36.124Z,99408.97
2022-11-10T09:17:41.691Z,99408.19
2022-11-10T09:18:43.154Z,99406.94
2022-11-10T09:19:45.074Z,99410.16
2022-11-10T09:20:46.580Z,99414.00
2022-11-10T09:21:48.001Z,99413.66
2022-11-10T09:22:49.543Z,99420.19
2022-11-10T09:23:50.968Z,99422.38
2022-11-10T09:24:52.414Z,99430.50
2022-11-10T09:25:56.217Z,99428.13
2022-11-10T09:26:57.647Z,99425.91
2022-11-10T09:27:59.124Z,99435.84
2022-11-10T09:29:00.644Z,99441.31
2022-11-10T09:30:02.170Z,99435.81
2022-11-10T09:31:03.646Z,99440.69
2022-11-10T09:32:05.354Z,99447.28
2022-11-10T09:33:07.528Z,99442.44
2022-11-10T09:34:09.993Z,99445.50
2022-11-10T09:35:11.550Z,99457.06
2022-11-10T09:36:12.988Z,99452.22
2022-11-10T09:37:14.413Z,99453.88
2022-11-10T09:38:16.380Z,99454.88
2022-11-10T09:39:18.332Z,99459.19
2022-11-10T09:40:30.233Z,99463.13
2022-11-10T09:41:31.786Z,99471.03
2022-11-10T09:42:37.333Z,99468.59
2022-11-10T09:44:02.053Z,99463.22
2022-11-10T09:45:15.880Z,99473.00
2022-11-10T09:46:21.484Z,99473.56
2022-11-10T09:47:55.596Z,99475.22
2022-11-10T09:48:54.104Z,99477.38
2022-11-10T09:50:00.910Z,99470.69
2022-11-10T09:51:09.741Z,99481.84
2022-11-10T09:52:13.543Z,99480.19
2022-11-10T09:53:24.236Z,99483.50
2022-11-10T09:55:27.697Z,99486.81
2022-11-10T09:56:36.878Z,99484.72
2022-11-10T09:57:38.650Z,99484.28
2022-11-10T09:58:45.053Z,99483.59
2022-11-10T09:59:46.473Z,99482.94
2022-11-10T10:01:11.699Z,99481.31
2022-11-10T10:02:26.699Z,99480.75
2022-11-10T10:03:31.372Z,99488.91
2022-11-10T10:04:51.895Z,99483.25
2022-11-10T10:06:04.799Z,99485.47
2022-11-10T10:07:15.673Z,99482.63
2022-11-10T10:08:24.559Z,99493.28
2022-11-10T10:09:26.083Z,99479.41
2022-11-10T10:10:27.384Z,99488.56
2022-11-10T10:11:32.354Z,99490.84
2022-11-10T10:12:45.697Z,99481.50
2022-11-10T10:14:23.927Z,99482.16
2022-11-10T10:15:45.032Z,99479.41
2022-11-10T10:17:18.871Z,99479.41
2022-11-10T10:18:41.630Z,99473.91
2022-11-10T10:20:21.238Z,99473.56
2022-11-10T10:21:47.580Z,99477.19
2022-11-10T10:22:55.310Z,99481.94
2022-11-10T10:24:10.236Z,99482.47
2022-11-10T10:25:25.613Z,99487.00
2022-11-10T10:26:30.865Z,99482.47
2022-11-10T10:27:34.787Z,99491.19
2022-11-10T10:28:40.988Z,99486.47
2022-11-10T10:29:49.152Z,99496.59
2022-11-10T10:30:50.631Z,99488.34
2022-11-10T10:31:53.755Z,99487.88
2022-11-10T10:33:01.739Z,99490.59
2022-11-10T10:34:03.297Z,99486.88
2022-11-10T10:35:05.603Z,99488.66
2022-11-10T10:36:17.672Z,99486.19
2022-11-10T10:37:52.622Z,99489.41
2022-11-10T10:39:02.272Z,99495.72
2022-11-10T10:40:04.107Z,99482.25
2022-11-10T10:41:33.126Z,99481.13
2022-11-10T10:42:36.914Z,99481.72
2022-11-10T10:43:42.087Z,99481.47
2022-11-10T10:45:11.663Z,99472.91
2022-11-10T10:46:15.893Z,99473.97
2022-11-10T10:47:17.339Z,99477.19
2022-11-10T10:48:29.904Z,99480.34
2022-11-10T10:49:36.772Z,99477.72
2022-11-10T10:50:43.040Z,99470.00
2022-11-10T10:51:44.550Z,99469.78
2022-11-10T10:53:05.066Z,99479.34
2022-11-10T10:54:23.621Z,99472.28
2022-11-10T10:55:28.428Z,99482.94
2022-11-10T10:56:33.235Z,99473.72
2022-11-10T10:57:34.697Z,99470.41
2022-11-10T10:58:50.225Z,99481.50
2022-11-10T10:59:52.148Z,99477.63
2022-11-10T11:01:03.649Z,99478.16
2022-11-10T11:02:21.799Z,99480.88
2022-11-10T11:03:36.991Z,99476.47
2022-11-10T11:04:38.329Z,99481.41
2022-11-10T11:05:40.163Z,99473.91
2022-11-10T11:06:58.112Z,99475.53
2022-11-10T11:08:02.182Z,99473.75
2022-11-10T11:09:19.966Z,99471.03
2022-11-10T11:10:28.394Z,99475.25
2022-11-10T11:11:33.246Z,99477.91
2022-11-10T11:12:34.679Z,99481.41
2022-11-10T11:13:36.234Z,99485.94
2022-11-10T11:14:40.680Z,99483.03
2022-11-10T11:16:01.058Z,99481.28
2022-11-10T11:17:22.274Z,99485.69
2022-11-10T11:18:25.492Z,99482.28
2022-11-10T11:19:36.644Z,99481.16
2022-11-10T11:20:52.613Z,99474.69
2022-11-10T11:22:07.005Z,99476.88
2022-11-10T11:23:37.182Z,99477.66
2022-11-10T11:24:54.773Z,99480.38
2022-11-10T11:26:10.611Z,99476.97
2022-11-10T11:27:37.122Z,99466.38
2022-11-10T11:28:52.211Z,99472.31
2022-11-10T11:30:23.899Z,99472.19
2022-11-10T11:31:57.313Z,99467.06
2022-11-10T11:33:29.760Z,99465.38
2022-11-10T11:34:41.760Z,99474.44
2022-11-10T11:35:49.736Z,99464.78
2022-11-10T11:37:12.063Z,99466.16
2022-11-10T11:38:48.172Z,99472.84
2022-11-10T11:39:55.857Z,99481.63
2022-11-10T11:41:26.653Z,99479.09
2022-11-10T11:42:36.984Z,99483.38
2022-11-10T11:43:58.993Z,99482.34
2022-11-10T11:45:16.132Z,99480.97
2022-11-10T11:46:43.570Z,99478.50
2022-11-10T11:47:47.701Z,99480.38
2022-11-10T11:49:00.780Z,99478.44
2022-11-10T11:50:28.966Z,99479.75
2022-11-10T11:52:00.095Z,99482.41
2022-11-10T11:53:04.250Z,99473.03
2022-11-10T11:54:17.713Z,99481.41
2022-11-10T11:55:25.708Z,99479.00
2022-11-10T11:56:39.855Z,99474.16
2022-11-10T11:57:56.746Z,99474.97
2022-11-10T11:59:13.346Z,99475.84
2022-11-10T12:00:18.315Z,99477.63
2022-11-10T12:01:25.445Z,99476.19
2022-11-10T12:02:52.599Z,99469.53
2022-11-10T12:04:15.801Z,99472.69
2022-11-10T12:05:36.769Z,99475.50
2022-11-10T12:07:06.069Z,99479.88
2022-11-10T12:08:21.590Z,99468.34
2022-11-10T12:09:46.082Z,99470.47
2022-11-10T12:11:10.042Z,99474.94
2022-11-10T12:12:26.332Z,99474.34
2022-11-10T12:13:55.427Z,99465.00
2022-11-10T12:15:18.769Z,99466.63
2022-11-10T12:16:29.875Z,99470.13
2022-11-10T12:17:56.374Z,99458.19
2022-11-10T12:20:57.847Z,99466.28
2022-11-10T12:22:12.169Z,99465.66
2022-11-10T12:23:45.334Z,99465.81
2022-11-10T12:25:07.991Z,99461.31
2022-11-10T12:26:09.348Z,99463.28
2022-11-10T12:27:16.536Z,99464.63
2022-11-10T12:28:31.692Z,99468.22
2022-11-10T12:29:33.005Z,99474.41
2022-11-10T12:30:35.742Z,99472.31
2022-11-10T12:31:40.036Z,99474.00
2022-11-10T12:33:23.249Z,99469.19
2022-11-10T12:34:43.256Z,99470.28
2022-11-10T12:35:46.326Z,99469.59
2022-11-10T12:36:50.627Z,99476.56
2022-11-10T12:38:04.390Z,99478.09
2022-11-10T12:39:14.944Z,99465.00
2022-11-10T12:40:19.691Z,99464.72
2022-11-10T12:41:21.614Z,99470.50
2022-11-10T12:42:26.092Z,99472.13
2022-11-10T12:43:40.164Z,99464.72
2022-11-10T12:45:02.078Z,99463.59
2022-11-10T12:46:08.982Z,99471.28
2022-11-10T12:47:17.618Z,99473.03
2022-11-10T12:48:21.229Z,99479.53
2022-11-10T12:49:37.554Z,99481.00